Terminal Aerodrome Forecast
Issued by NWS Cleveland, OH

Home | Current Version | Previous Version | Graphics & Text | Print | Product List | Glossary On
Versions: 1 2 3 4 5 6 7 8 9 10 11 12 13 14 15 16 17 18 19 20 21 22
354
FTUS41 KCLE 011138
TAFMFD
TAF
KMFD 011138Z 0112/0212 25013G22KT P6SM SCT015 BKN020
     FM020000 25012KT P6SM SCT020 BKN040
     FM020600 25009KT P6SM BKN012=

USA.gov is the U.S. government's official web portal to all federal, state and local government web resources and services.